sensor_id;sensor_type;location;lat;lon;timestamp;pressure;altitude;pressure_sealevel;temperature;humidity
37291;BME280;23175;-33.706;151.094;2023-11-18T00:02:21;100351.69;;;15.87;43.19
37291;BME280;23175;-33.706;151.094;2023-11-18T00:04:51;100348.98;;;17.37;40.44
37291;BME280;23175;-33.706;151.094;2023-11-18T00:07:21;100344.98;;;18.21;39.43
37291;BME280;23175;-33.706;151.094;2023-11-18T00:09:52;100343.53;;;19.68;36.61
37291;BME280;23175;-33.706;151.094;2023-11-18T00:12:21;100347.79;;;17.04;39.27
37291;BME280;23175;-33.706;151.094;2023-11-18T00:14:52;100345.54;;;13.24;44.87
37291;BME280;23175;-33.706;151.094;2023-11-18T00:17:22;100347.58;;;17.46;39.89
37291;BME280;23175;-33.706;151.094;2023-11-18T00:19:52;100345.47;;;15.63;42.48
37291;BME280;23175;-33.706;151.094;2023-11-18T00:22:22;100345.25;;;17.28;40.33
37291;BME280;23175;-33.706;151.094;2023-11-18T00:24:56;100344.05;;;18.50;38.32
37291;BME280;23175;-33.706;151.094;2023-11-18T00:27:26;100340.33;;;18.14;37.56
37291;BME280;23175;-33.706;151.094;2023-11-18T00:29:56;100334.98;;;15.23;40.87
37291;BME280;23175;-33.706;151.094;2023-11-18T00:32:26;100332.22;;;19.61;35.19
37291;BME280;23175;-33.706;151.094;2023-11-18T00:34:57;100338.20;;;15.26;40.87
37291;BME280;23175;-33.706;151.094;2023-11-18T00:37:27;100334.06;;;19.06;36.33
37291;BME280;23175;-33.706;151.094;2023-11-18T00:39:57;100336.04;;;14.70;40.63
37291;BME280;23175;-33.706;151.094;2023-11-18T00:42:28;100331.10;;;15.02;41.86
37291;BME280;23175;-33.706;151.094;2023-11-18T00:44:58;100333.19;;;15.82;41.22
37291;BME280;23175;-33.706;151.094;2023-11-18T00:47:28;100327.02;;;15.87;39.84
37291;BME280;23175;-33.706;151.094;2023-11-18T00:49:58;100324.01;;;16.74;40.32
37291;BME280;23175;-33.706;151.094;2023-11-18T00:52:28;100319.32;;;17.33;39.04
37291;BME280;23175;-33.706;151.094;2023-11-18T00:54:58;100315.56;;;15.28;42.19
37291;BME280;23175;-33.706;151.094;2023-11-18T00:57:28;100310.13;;;17.27;37.94
37291;BME280;23175;-33.706;151.094;2023-11-18T00:59:58;100301.28;;;19.59;35.02
37291;BME280;23175;-33.706;151.094;2023-11-18T01:02:29;100306.10;;;15.89;39.41
37291;BME280;23175;-33.706;151.094;2023-11-18T01:04:59;100306.59;;;13.92;43.21
37291;BME280;23175;-33.706;151.094;2023-11-18T01:07:28;100301.84;;;15.07;42.82
37291;BME280;23175;-33.706;151.094;2023-11-18T01:10:03;100293.11;;;15.18;43.20
37291;BME280;23175;-33.706;151.094;2023-11-18T01:12:33;100296.20;;;16.22;42.44
37291;BME280;23175;-33.706;151.094;2023-11-18T01:15:04;100289.13;;;16.13;42.62
37291;BME280;23175;-33.706;151.094;2023-11-18T01:17:34;100294.96;;;15.38;43.54
37291;BME280;23175;-33.706;151.094;2023-11-18T01:20:05;100294.28;;;17.03;41.24
37291;BME280;23175;-33.706;151.094;2023-11-18T01:22:36;100291.16;;;16.58;41.17
37291;BME280;23175;-33.706;151.094;2023-11-18T01:25:07;100286.87;;;17.62;38.98
37291;BME280;23175;-33.706;151.094;2023-11-18T01:27:37;100284.57;;;15.84;40.81
37291;BME280;23175;-33.706;151.094;2023-11-18T01:30:08;100271.72;;;18.22;38.27
37291;BME280;23175;-33.706;151.094;2023-11-18T01:32:38;100275.25;;;17.01;40.92
37291;BME280;23175;-33.706;151.094;2023-11-18T01:35:09;100270.82;;;18.46;37.51
37291;BME280;23175;-33.706;151.094;2023-11-18T01:37:39;100262.93;;;17.90;37.61
37291;BME280;23175;-33.706;151.094;2023-11-18T01:40:10;100262.57;;;17.19;39.80
37291;BME280;23175;-33.706;151.094;2023-11-18T01:42:43;100251.82;;;18.24;36.76
37291;BME280;23175;-33.706;151.094;2023-11-18T01:45:13;100247.34;;;19.38;37.22
37291;BME280;23175;-33.706;151.094;2023-11-18T01:47:44;100249.41;;;16.10;39.70
37291;BME280;23175;-33.706;151.094;2023-11-18T01:50:15;100245.43;;;17.78;39.44
37291;BME280;23175;-33.706;151.094;2023-11-18T01:52:46;100242.13;;;17.62;38.41
37291;BME280;23175;-33.706;151.094;2023-11-18T01:55:17;100239.94;;;18.60;38.20
37291;BME280;23175;-33.706;151.094;2023-11-18T01:57:47;100235.66;;;18.71;37.20
37291;BME280;23175;-33.706;151.094;2023-11-18T02:00:18;100240.71;;;14.92;42.69
37291;BME280;23175;-33.706;151.094;2023-11-18T02:02:48;100238.62;;;16.39;41.37
37291;BME280;23175;-33.706;151.094;2023-11-18T02:05:18;100234.93;;;16.24;39.81
37291;BME280;23175;-33.706;151.094;2023-11-18T02:07:48;100226.70;;;18.77;38.19
37291;BME280;23175;-33.706;151.094;2023-11-18T02:10:24;100222.12;;;17.45;38.23
37291;BME280;23175;-33.706;151.094;2023-11-18T02:13:01;100221.07;;;18.26;37.69
37291;BME280;23175;-33.706;151.094;2023-11-18T02:15:35;100222.20;;;16.90;39.26
37291;BME280;23175;-33.706;151.094;2023-11-18T02:18:08;100212.58;;;15.57;40.33
37291;BME280;23175;-33.706;151.094;2023-11-18T02:20:39;100204.39;;;18.89;37.65
37291;BME280;23175;-33.706;151.094;2023-11-18T02:23:10;100213.19;;;16.35;41.10
37291;BME280;23175;-33.706;151.094;2023-11-18T02:25:44;100210.51;;;19.14;38.34
37291;BME280;23175;-33.706;151.094;2023-11-18T02:28:15;100209.32;;;17.15;39.68
37291;BME280;23175;-33.706;151.094;2023-11-18T02:30:48;100204.14;;;17.97;39.23
37291;BME280;23175;-33.706;151.094;2023-11-18T02:33:24;100209.42;;;16.20;42.66
37291;BME280;23175;-33.706;151.094;2023-11-18T02:36:09;100207.88;;;17.38;40.15
37291;BME280;23175;-33.706;151.094;2023-11-18T02:38:43;100200.77;;;18.09;40.06
37291;BME280;23175;-33.706;151.094;2023-11-18T02:41:15;100198.74;;;18.59;40.02
37291;BME280;23175;-33.706;151.094;2023-11-18T02:43:46;100199.90;;;18.51;38.03
37291;BME280;23175;-33.706;151.094;2023-11-18T02:46:17;100194.55;;;18.29;38.76
37291;BME280;23175;-33.706;151.094;2023-11-18T02:48:49;100195.66;;;18.65;39.56
37291;BME280;23175;-33.706;151.094;2023-11-18T02:51:19;100202.64;;;17.06;42.12
37291;BME280;23175;-33.706;151.094;2023-11-18T02:53:49;100193.68;;;17.69;41.24
37291;BME280;23175;-33.706;151.094;2023-11-18T02:56:20;100187.99;;;17.23;42.27
37291;BME280;23175;-33.706;151.094;2023-11-18T02:58:50;100188.23;;;16.87;43.54
37291;BME280;23175;-33.706;151.094;2023-11-18T03:01:19;100187.17;;;18.54;41.44
37291;BME280;23175;-33.706;151.094;2023-11-18T03:03:49;100187.20;;;18.69;40.61
37291;BME280;23175;-33.706;151.094;2023-11-18T03:06:18;100182.45;;;17.96;40.69
37291;BME280;23175;-33.706;151.094;2023-11-18T03:08:49;100179.56;;;19.60;39.38
37291;BME280;23175;-33.706;151.094;2023-11-18T03:11:19;100175.77;;;18.11;39.58
37291;BME280;23175;-33.706;151.094;2023-11-18T03:13:49;100172.78;;;19.28;38.35
37291;BME280;23175;-33.706;151.094;2023-11-18T03:16:20;100183.21;;;16.39;42.95
37291;BME280;23175;-33.706;151.094;2023-11-18T03:18:50;100180.57;;;16.47;43.03
37291;BME280;23175;-33.706;151.094;2023-11-18T03:21:20;100177.10;;;18.42;41.83
37291;BME280;23175;-33.706;151.094;2023-11-18T03:23:51;100173.95;;;19.09;40.58
37291;BME280;23175;-33.706;151.094;2023-11-18T03:26:21;100168.55;;;17.38;42.68
37291;BME280;23175;-33.706;151.094;2023-11-18T03:28:52;100167.96;;;17.81;40.80
37291;BME280;23175;-33.706;151.094;2023-11-18T03:31:27;100172.76;;;16.97;42.50
37291;BME280;23175;-33.706;151.094;2023-11-18T03:33:57;100166.46;;;17.14;41.20
37291;BME280;23175;-33.706;151.094;2023-11-18T03:36:32;100162.60;;;19.91;39.32
37291;BME280;23175;-33.706;151.094;2023-11-18T03:39:02;100162.03;;;16.52;43.59
37291;BME280;23175;-33.706;151.094;2023-11-18T03:41:32;100159.88;;;18.96;39.85
37291;BME280;23175;-33.706;151.094;2023-11-18T03:44:03;100161.18;;;16.92;41.98
37291;BME280;23175;-33.706;151.094;2023-11-18T03:46:33;100160.67;;;18.12;40.01
37291;BME280;23175;-33.706;151.094;2023-11-18T03:49:03;100165.59;;;17.06;43.27
37291;BME280;23175;-33.706;151.094;2023-11-18T03:51:33;100161.28;;;17.54;42.10
37291;BME280;23175;-33.706;151.094;2023-11-18T03:54:04;100163.04;;;18.26;41.00
37291;BME280;23175;-33.706;151.094;2023-11-18T03:56:34;100161.46;;;16.73;42.41
37291;BME280;23175;-33.706;151.094;2023-11-18T03:59:03;100158.31;;;17.46;41.06
37291;BME280;23175;-33.706;151.094;2023-11-18T04:01:34;100158.88;;;16.12;42.54
37291;BME280;23175;-33.706;151.094;2023-11-18T04:04:04;100167.66;;;16.99;41.61
37291;BME280;23175;-33.706;151.094;2023-11-18T04:06:34;100154.03;;;17.61;41.13
37291;BME280;23175;-33.706;151.094;2023-11-18T04:09:05;100164.42;;;17.41;40.93
37291;BME280;23175;-33.706;151.094;2023-11-18T04:11:35;100154.71;;;17.49;40.47
37291;BME280;23175;-33.706;151.094;2023-11-18T04:14:06;100159.69;;;17.86;40.22
37291;BME280;23175;-33.706;151.094;2023-11-18T04:16:37;100145.99;;;17.75;39.72
37291;BME280;23175;-33.706;151.094;2023-11-18T04:19:07;100149.60;;;17.68;39.47
37291;BME280;23175;-33.706;151.094;2023-11-18T04:21:37;100148.09;;;16.86;39.54
37291;BME280;23175;-33.706;151.094;2023-11-18T04:24:09;100146.23;;;17.73;38.58
37291;BME280;23175;-33.706;151.094;2023-11-18T04:26:38;100150.97;;;18.46;39.85
37291;BME280;23175;-33.706;151.094;2023-11-18T04:29:10;100145.55;;;17.61;40.08
37291;BME280;23175;-33.706;151.094;2023-11-18T04:31:54;100142.78;;;17.75;38.41
37291;BME280;23175;-33.706;151.094;2023-11-18T04:34:24;100139.45;;;16.93;40.30
37291;BME280;23175;-33.706;151.094;2023-11-18T04:36:55;100137.64;;;17.97;38.22
37291;BME280;23175;-33.706;151.094;2023-11-18T04:39:25;100136.94;;;16.19;39.27
37291;BME280;23175;-33.706;151.094;2023-11-18T04:41:55;100136.88;;;17.27;38.05
37291;BME280;23175;-33.706;151.094;2023-11-18T04:44:25;100133.74;;;16.63;38.92
37291;BME280;23175;-33.706;151.094;2023-11-18T04:46:54;100133.96;;;16.97;39.20
37291;BME280;23175;-33.706;151.094;2023-11-18T04:49:24;100124.27;;;17.42;38.17
37291;BME280;23175;-33.706;151.094;2023-11-18T04:51:54;100132.71;;;17.10;39.57
37291;BME280;23175;-33.706;151.094;2023-11-18T04:54:25;100126.06;;;16.87;39.11
37291;BME280;23175;-33.706;151.094;2023-11-18T04:56:55;100135.53;;;15.27;40.98
37291;BME280;23175;-33.706;151.094;2023-11-18T04:59:25;100131.54;;;16.98;39.54
37291;BME280;23175;-33.706;151.094;2023-11-18T05:01:55;100123.09;;;15.52;41.30
37291;BME280;23175;-33.706;151.094;2023-11-18T05:04:25;100133.33;;;16.10;40.87
37291;BME280;23175;-33.706;151.094;2023-11-18T05:06:55;100124.21;;;15.56;41.26
37291;BME280;23175;-33.706;151.094;2023-11-18T05:09:24;100116.78;;;16.66;39.32
37291;BME280;23175;-33.706;151.094;2023-11-18T05:11:55;100117.46;;;17.10;39.20
37291;BME280;23175;-33.706;151.094;2023-11-18T05:14:25;100123.23;;;16.71;40.00
37291;BME280;23175;-33.706;151.094;2023-11-18T05:16:56;100117.63;;;16.23;39.08
37291;BME280;23175;-33.706;151.094;2023-11-18T05:19:26;100116.92;;;16.23;38.71
37291;BME280;23175;-33.706;151.094;2023-11-18T05:21:56;100124.45;;;17.28;39.39
37291;BME280;23175;-33.706;151.094;2023-11-18T05:24:27;100110.50;;;16.98;38.55
37291;BME280;23175;-33.706;151.094;2023-11-18T05:26:57;100109.51;;;16.18;39.86
37291;BME280;23175;-33.706;151.094;2023-11-18T05:29:28;100111.29;;;17.25;37.64
37291;BME280;23175;-33.706;151.094;2023-11-18T05:31:59;100112.49;;;15.74;40.14
37291;BME280;23175;-33.706;151.094;2023-11-18T05:34:29;100113.80;;;17.21;38.50
37291;BME280;23175;-33.706;151.094;2023-11-18T05:36:59;100114.91;;;16.06;39.64
37291;BME280;23175;-33.706;151.094;2023-11-18T05:39:29;100112.65;;;16.71;39.15
37291;BME280;23175;-33.706;151.094;2023-11-18T05:42:00;100113.41;;;17.09;38.07
37291;BME280;23175;-33.706;151.094;2023-11-18T05:44:30;100110.66;;;16.33;37.84
37291;BME280;23175;-33.706;151.094;2023-11-18T05:47:05;100116.01;;;15.78;39.80
37291;BME280;23175;-33.706;151.094;2023-11-18T05:49:35;100105.80;;;17.83;37.60
37291;BME280;23175;-33.706;151.094;2023-11-18T05:52:05;100109.16;;;18.11;37.13
37291;BME280;23175;-33.706;151.094;2023-11-18T05:54:35;100110.97;;;17.81;37.69
37291;BME280;23175;-33.706;151.094;2023-11-18T05:57:06;100114.86;;;16.49;38.17
37291;BME280;23175;-33.706;151.094;2023-11-18T05:59:35;100119.63;;;15.91;39.39
37291;BME280;23175;-33.706;151.094;2023-11-18T06:02:06;100114.90;;;15.88;40.14
37291;BME280;23175;-33.706;151.094;2023-11-18T06:04:35;100125.39;;;14.81;41.28
37291;BME280;23175;-33.706;151.094;2023-11-18T06:07:06;100123.22;;;15.15;42.62
37291;BME280;23175;-33.706;151.094;2023-11-18T06:09:36;100119.88;;;16.39;39.88
37291;BME280;23175;-33.706;151.094;2023-11-18T06:12:06;100117.88;;;16.05;40.53
37291;BME280;23175;-33.706;151.094;2023-11-18T06:14:36;100116.79;;;15.72;40.21
37291;BME280;23175;-33.706;151.094;2023-11-18T06:17:07;100131.13;;;14.54;42.57
37291;BME280;23175;-33.706;151.094;2023-11-18T06:19:37;100129.06;;;15.42;41.97
37291;BME280;23175;-33.706;151.094;2023-11-18T06:22:07;100124.46;;;15.05;42.77
37291;BME280;23175;-33.706;151.094;2023-11-18T06:24:37;100121.54;;;16.68;40.48
37291;BME280;23175;-33.706;151.094;2023-11-18T06:27:07;100126.25;;;17.20;40.27
37291;BME280;23175;-33.706;151.094;2023-11-18T06:29:37;100126.15;;;15.67;42.23
37291;BME280;23175;-33.706;151.094;2023-11-18T06:32:08;100126.92;;;14.68;43.16
37291;BME280;23175;-33.706;151.094;2023-11-18T06:34:39;100121.20;;;16.60;41.25
37291;BME280;23175;-33.706;151.094;2023-11-18T06:37:09;100124.00;;;16.47;42.11
37291;BME280;23175;-33.706;151.094;2023-11-18T06:39:43;100112.65;;;15.71;43.11
37291;BME280;23175;-33.706;151.094;2023-11-18T06:42:13;100119.73;;;16.77;41.03
37291;BME280;23175;-33.706;151.094;2023-11-18T06:44:44;100121.11;;;15.51;43.37
37291;BME280;23175;-33.706;151.094;2023-11-18T06:47:13;100127.33;;;14.42;45.31
37291;BME280;23175;-33.706;151.094;2023-11-18T06:49:44;100125.01;;;15.41;43.59
37291;BME280;23175;-33.706;151.094;2023-11-18T06:52:13;100125.97;;;15.26;44.49
37291;BME280;23175;-33.706;151.094;2023-11-18T06:54:44;100127.83;;;15.61;43.59
37291;BME280;23175;-33.706;151.094;2023-11-18T06:57:13;100127.83;;;14.96;45.19
37291;BME280;23175;-33.706;151.094;2023-11-18T06:59:43;100129.36;;;16.02;43.91
37291;BME280;23175;-33.706;151.094;2023-11-18T07:02:13;100129.22;;;15.58;43.73
37291;BME280;23175;-33.706;151.094;2023-11-18T07:04:43;100130.13;;;16.67;42.08
37291;BME280;23175;-33.706;151.094;2023-11-18T07:07:13;100135.22;;;15.91;43.47
37291;BME280;23175;-33.706;151.094;2023-11-18T07:09:43;100134.88;;;15.34;44.05
37291;BME280;23175;-33.706;151.094;2023-11-18T07:12:14;100134.84;;;15.29;44.13
37291;BME280;23175;-33.706;151.094;2023-11-18T07:14:44;100133.55;;;16.47;43.21
37291;BME280;23175;-33.706;151.094;2023-11-18T07:17:15;100139.91;;;14.44;46.01
37291;BME280;23175;-33.706;151.094;2023-11-18T07:19:45;100137.78;;;14.77;45.62
37291;BME280;23175;-33.706;151.094;2023-11-18T07:22:15;100146.64;;;14.92;45.87
37291;BME280;23175;-33.706;151.094;2023-11-18T07:24:45;100146.50;;;15.64;45.39
37291;BME280;23175;-33.706;151.094;2023-11-18T07:27:14;100146.85;;;14.65;46.02
37291;BME280;23175;-33.706;151.094;2023-11-18T07:29:45;100147.66;;;16.19;44.97
37291;BME280;23175;-33.706;151.094;2023-11-18T07:32:15;100143.80;;;15.30;45.17
37291;BME280;23175;-33.706;151.094;2023-11-18T07:34:45;100147.52;;;15.73;45.27
37291;BME280;23175;-33.706;151.094;2023-11-18T07:37:15;100155.66;;;13.87;47.44
37291;BME280;23175;-33.706;151.094;2023-11-18T07:39:46;100159.19;;;14.34;47.56
37291;BME280;23175;-33.706;151.094;2023-11-18T07:42:15;100155.91;;;14.34;47.52
37291;BME280;23175;-33.706;151.094;2023-11-18T07:44:46;100158.95;;;15.50;45.58
37291;BME280;23175;-33.706;151.094;2023-11-18T07:47:16;100163.29;;;14.88;46.30
37291;BME280;23175;-33.706;151.094;2023-11-18T07:49:46;100164.86;;;14.84;47.68
37291;BME280;23175;-33.706;151.094;2023-11-18T07:52:15;100165.36;;;15.67;45.63
37291;BME280;23175;-33.706;151.094;2023-11-18T07:54:45;100169.29;;;14.08;48.42
37291;BME280;23175;-33.706;151.094;2023-11-18T07:57:15;100173.43;;;15.75;45.94
37291;BME280;23175;-33.706;151.094;2023-11-18T07:59:44;100171.04;;;15.94;45.96
37291;BME280;23175;-33.706;151.094;2023-11-18T08:02:14;100178.77;;;15.56;45.38
37291;BME280;23175;-33.706;151.094;2023-11-18T08:04:44;100179.22;;;16.40;44.43
37291;BME280;23175;-33.706;151.094;2023-11-18T08:07:14;100186.90;;;14.59;46.93
37291;BME280;23175;-33.706;151.094;2023-11-18T08:09:44;100189.83;;;15.97;45.73
37291;BME280;23175;-33.706;151.094;2023-11-18T08:12:15;100193.02;;;16.82;43.31
37291;BME280;23175;-33.706;151.094;2023-11-18T08:14:45;100189.73;;;14.64;46.46
37291;BME280;23175;-33.706;151.094;2023-11-18T08:17:15;100192.82;;;14.36;46.10
37291;BME280;23175;-33.706;151.094;2023-11-18T08:19:50;100198.85;;;14.15;46.49
37291;BME280;23175;-33.706;151.094;2023-11-18T08:22:21;100195.24;;;14.53;46.79
37291;BME280;23175;-33.706;151.094;2023-11-18T08:24:51;100204.35;;;13.24;50.53
37291;BME280;23175;-33.706;151.094;2023-11-18T08:27:26;100203.50;;;13.64;49.57
37291;BME280;23175;-33.706;151.094;2023-11-18T08:29:56;100208.24;;;13.93;49.40
37291;BME280;23175;-33.706;151.094;2023-11-18T08:32:26;100213.12;;;14.23;48.08
37291;BME280;23175;-33.706;151.094;2023-11-18T08:34:56;100218.09;;;15.66;45.77
37291;BME280;23175;-33.706;151.094;2023-11-18T08:37:27;100218.14;;;16.73;43.47
37291;BME280;23175;-33.706;151.094;2023-11-18T08:39:57;100223.24;;;13.01;48.13
37291;BME280;23175;-33.706;151.094;2023-11-18T08:42:27;100221.51;;;15.50;44.66
37291;BME280;23175;-33.706;151.094;2023-11-18T08:44:57;100227.85;;;16.85;41.80
37291;BME280;23175;-33.706;151.094;2023-11-18T08:47:28;100228.45;;;12.87;48.76
37291;BME280;23175;-33.706;151.094;2023-11-18T08:49:58;100233.73;;;12.54;50.53
37291;BME280;23175;-33.706;151.094;2023-11-18T08:52:29;100230.16;;;14.63;48.32
37291;BME280;23175;-33.706;151.094;2023-11-18T08:55:00;100233.08;;;13.36;49.79
37291;BME280;23175;-33.706;151.094;2023-11-18T08:57:31;100229.05;;;15.93;45.68
37291;BME280;23175;-33.706;151.094;2023-11-18T09:00:01;100228.07;;;14.48;47.03
37291;BME280;23175;-33.706;151.094;2023-11-18T09:02:37;100226.33;;;14.66;47.51
37291;BME280;23175;-33.706;151.094;2023-11-18T09:05:08;100233.10;;;14.82;46.90
37291;BME280;23175;-33.706;151.094;2023-11-18T09:07:38;100232.80;;;16.51;45.12
37291;BME280;23175;-33.706;151.094;2023-11-18T09:10:09;100233.77;;;15.02;46.85
37291;BME280;23175;-33.706;151.094;2023-11-18T09:12:39;100241.62;;;12.42;52.01
37291;BME280;23175;-33.706;151.094;2023-11-18T09:15:11;100236.04;;;14.01;50.32
37291;BME280;23175;-33.706;151.094;2023-11-18T09:17:42;100239.78;;;14.00;49.87
37291;BME280;23175;-33.706;151.094;2023-11-18T09:20:13;100244.54;;;12.96;51.52
37291;BME280;23175;-33.706;151.094;2023-11-18T09:22:43;100250.82;;;12.43;52.63
37291;BME280;23175;-33.706;151.094;2023-11-18T09:25:14;100249.22;;;14.35;50.03
37291;BME280;23175;-33.706;151.094;2023-11-18T09:27:44;100255.73;;;12.02;53.63
37291;BME280;23175;-33.706;151.094;2023-11-18T09:30:15;100250.44;;;15.84;47.01
37291;BME280;23175;-33.706;151.094;2023-11-18T09:32:46;100265.18;;;13.25;51.83
37291;BME280;23175;-33.706;151.094;2023-11-18T09:35:16;100260.60;;;13.65;49.39
37291;BME280;23175;-33.706;151.094;2023-11-18T09:37:46;100270.33;;;13.01;51.21
37291;BME280;23175;-33.706;151.094;2023-11-18T09:40:18;100275.40;;;13.38;50.35
37291;BME280;23175;-33.706;151.094;2023-11-18T09:42:50;100277.71;;;12.72;52.04
37291;BME280;23175;-33.706;151.094;2023-11-18T09:45:20;100280.10;;;14.57;49.07
37291;BME280;23175;-33.706;151.094;2023-11-18T09:47:51;100279.68;;;15.48;48.14
37291;BME280;23175;-33.706;151.094;2023-11-18T09:50:25;100283.18;;;16.42;45.72
37291;BME280;23175;-33.706;151.094;2023-11-18T09:52:59;100280.84;;;13.77;50.15
37291;BME280;23175;-33.706;151.094;2023-11-18T09:55:38;100282.49;;;14.51;47.61
37291;BME280;23175;-33.706;151.094;2023-11-18T09:58:17;100292.66;;;11.83;52.97
37291;BME280;23175;-33.706;151.094;2023-11-18T10:00:50;100301.15;;;11.72;54.43
37291;BME280;23175;-33.706;151.094;2023-11-18T10:03:21;100306.44;;;12.90;52.46
37291;BME280;23175;-33.706;151.094;2023-11-18T10:05:53;100299.57;;;14.23;49.90
37291;BME280;23175;-33.706;151.094;2023-11-18T10:08:24;100305.43;;;13.63;50.40
37291;BME280;23175;-33.706;151.094;2023-11-18T10:10:55;100308.60;;;15.27;47.31
37291;BME280;23175;-33.706;151.094;2023-11-18T10:13:25;100314.71;;;12.10;53.28
37291;BME280;23175;-33.706;151.094;2023-11-18T10:15:56;100319.11;;;14.90;47.97
37291;BME280;23175;-33.706;151.094;2023-11-18T10:18:27;100328.10;;;13.58;49.30
37291;BME280;23175;-33.706;151.094;2023-11-18T10:20:58;100329.28;;;14.12;47.87
37291;BME280;23175;-33.706;151.094;2023-11-18T10:23:28;100330.47;;;13.58;48.92
37291;BME280;23175;-33.706;151.094;2023-11-18T10:26:00;100331.45;;;12.89;50.33
37291;BME280;23175;-33.706;151.094;2023-11-18T10:28:31;100331.06;;;14.57;47.09
37291;BME280;23175;-33.706;151.094;2023-11-18T10:31:03;100331.19;;;16.54;44.35
37291;BME280;23175;-33.706;151.094;2023-11-18T10:33:35;100334.46;;;13.56;47.98
37291;BME280;23175;-33.706;151.094;2023-11-18T10:36:17;100340.79;;;15.50;45.28
37291;BME280;23175;-33.706;151.094;2023-11-18T10:38:50;100346.69;;;12.30;50.70
37291;BME280;23175;-33.706;151.094;2023-11-18T10:41:21;100344.28;;;13.03;49.60
37291;BME280;23175;-33.706;151.094;2023-11-18T10:44:07;100341.86;;;14.61;48.60
37291;BME280;23175;-33.706;151.094;2023-11-18T10:46:38;100347.34;;;13.27;48.90
37291;BME280;23175;-33.706;151.094;2023-11-18T10:49:08;100340.01;;;16.33;44.66
37291;BME280;23175;-33.706;151.094;2023-11-18T10:51:39;100342.25;;;15.48;45.98
37291;BME280;23175;-33.706;151.094;2023-11-18T10:54:09;100345.36;;;14.61;46.22
37291;BME280;23175;-33.706;151.094;2023-11-18T10:56:48;100342.24;;;13.38;48.26
37291;BME280;23175;-33.706;151.094;2023-11-18T10:59:19;100345.93;;;14.16;46.43
37291;BME280;23175;-33.706;151.094;2023-11-18T11:01:50;100345.64;;;13.10;49.31
37291;BME280;23175;-33.706;151.094;2023-11-18T11:04:20;100348.67;;;12.83;49.73
37291;BME280;23175;-33.706;151.094;2023-11-18T11:06:51;100346.25;;;14.56;47.43
37291;BME280;23175;-33.706;151.094;2023-11-18T11:09:22;100341.63;;;14.87;45.96
37291;BME280;23175;-33.706;151.094;2023-11-18T11:11:55;100343.61;;;14.90;46.31
37291;BME280;23175;-33.706;151.094;2023-11-18T11:14:30;100344.62;;;13.93;48.00
37291;BME280;23175;-33.706;151.094;2023-11-18T11:17:07;100347.60;;;13.12;48.45
37291;BME280;23175;-33.706;151.094;2023-11-18T11:19:50;100341.99;;;15.88;44.95
37291;BME280;23175;-33.706;151.094;2023-11-18T11:22:25;100338.62;;;16.45;43.62
37291;BME280;23175;-33.706;151.094;2023-11-18T11:25:08;100335.38;;;16.31;43.93
37291;BME280;23175;-33.706;151.094;2023-11-18T11:27:46;100339.42;;;18.08;40.88
37291;BME280;23175;-33.706;151.094;2023-11-18T11:30:22;100341.92;;;17.86;40.89
37291;BME280;23175;-33.706;151.094;2023-11-18T11:32:53;100341.12;;;18.30;40.25
37291;BME280;23175;-33.706;151.094;2023-11-18T11:35:32;100342.26;;;16.75;42.19
37291;BME280;23175;-33.706;151.094;2023-11-18T11:38:03;100341.84;;;18.67;39.59
37291;BME280;23175;-33.706;151.094;2023-11-18T11:40:35;100340.40;;;13.43;46.62
37291;BME280;23175;-33.706;151.094;2023-11-18T11:43:08;100335.62;;;16.54;42.72
37291;BME280;23175;-33.706;151.094;2023-11-18T11:45:40;100335.41;;;13.50;47.01
37291;BME280;23175;-33.706;151.094;2023-11-18T11:48:11;100334.34;;;17.33;42.00
37291;BME280;23175;-33.706;151.094;2023-11-18T11:50:55;100333.94;;;16.07;44.23
37291;BME280;23175;-33.706;151.094;2023-11-18T11:53:33;100331.59;;;17.52;41.48
37291;BME280;23175;-33.706;151.094;2023-11-18T11:56:05;100327.27;;;14.99;45.26
37291;BME280;23175;-33.706;151.094;2023-11-18T11:58:37;100325.91;;;16.74;43.35
37291;BME280;23175;-33.706;151.094;2023-11-18T12:01:21;100327.21;;;18.38;39.93
37291;BME280;23175;-33.706;151.094;2023-11-18T12:03:53;100326.94;;;16.14;42.54
37291;BME280;23175;-33.706;151.094;2023-11-18T12:06:24;100323.57;;;18.41;39.65
37291;BME280;23175;-33.706;151.094;2023-11-18T12:08:56;100329.34;;;17.86;40.54
37291;BME280;23175;-33.706;151.094;2023-11-18T12:11:27;100329.04;;;18.73;39.68
37291;BME280;23175;-33.706;151.094;2023-11-18T12:14:03;100333.63;;;17.19;41.45
37291;BME280;23175;-33.706;151.094;2023-11-18T12:17:01;100331.73;;;19.22;39.05
37291;BME280;23175;-33.706;151.094;2023-11-18T12:19:33;100329.09;;;19.71;38.54
37291;BME280;23175;-33.706;151.094;2023-11-18T12:22:04;100331.49;;;15.37;43.39
37291;BME280;23175;-33.706;151.094;2023-11-18T12:24:35;100331.27;;;17.15;41.45
37291;BME280;23175;-33.706;151.094;2023-11-18T12:27:06;100333.76;;;16.15;42.77
37291;BME280;23175;-33.706;151.094;2023-11-18T12:29:36;100334.43;;;18.25;40.17
37291;BME280;23175;-33.706;151.094;2023-11-18T12:32:11;100338.15;;;17.89;40.36
37291;BME280;23175;-33.706;151.094;2023-11-18T12:34:57;100332.88;;;18.36;39.98
37291;BME280;23175;-33.706;151.094;2023-11-18T12:37:56;100339.98;;;18.13;40.37
37291;BME280;23175;-33.706;151.094;2023-11-18T12:41:04;100342.09;;;18.65;39.74
37291;BME280;23175;-33.706;151.094;2023-11-18T12:43:55;100340.62;;;18.63;39.83